sensor_id;sensor_type;location;lat;lon;timestamp;pressure;altitude;pressure_sealevel;temperature;humidity
70027;BME280;57506;50.092;15.804;2023-05-25T00:01:24;99667.31;;;8.55;100.00
70027;BME280;57506;50.092;15.804;2023-05-25T00:03:51;99662.63;;;8.57;100.00
70027;BME280;57506;50.092;15.804;2023-05-25T00:06:17;99667.13;;;8.73;100.00
70027;BME280;57506;50.092;15.804;2023-05-25T00:08:44;99662.72;;;8.88;100.00
70027;BME280;57506;50.092;15.804;2023-05-25T00:11:11;99662.72;;;8.88;100.00
70027;BME280;57506;50.092;15.804;2023-05-25T00:13:38;99678.38;;;8.76;100.00
70027;BME280;57506;50.092;15.804;2023-05-25T00:16:04;99674.50;;;8.71;100.00
70027;BME280;57506;50.092;15.804;2023-05-25T00:18:30;99673.53;;;8.56;100.00
70027;BME280;57506;50.092;15.804;2023-05-25T00:20:57;99681.56;;;8.48;100.00
70027;BME280;57506;50.092;15.804;2023-05-25T00:23:23;99670.97;;;8.22;100.00
70027;BME280;57506;50.092;15.804;2023-05-25T00:25:48;99669.78;;;8.08;100.00
70027;BME280;57506;50.092;15.804;2023-05-25T00:28:14;99671.78;;;7.98;100.00
70027;BME280;57506;50.092;15.804;2023-05-25T00:30:39;99669.28;;;8.21;100.00
70027;BME280;57506;50.092;15.804;2023-05-25T00:33:05;99668.16;;;8.39;100.00
70027;BME280;57506;50.092;15.804;2023-05-25T00:35:31;99660.09;;;8.56;100.00
70027;BME280;57506;50.092;15.804;2023-05-25T00:37:56;99671.31;;;8.75;100.00
70027;BME280;57506;50.092;15.804;2023-05-25T00:40:22;99669.94;;;8.80;100.00
70027;BME280;57506;50.092;15.804;2023-05-25T00:42:47;99673.00;;;8.68;100.00
70027;BME280;57506;50.092;15.804;2023-05-25T00:45:13;99684.09;;;8.65;100.00
70027;BME280;57506;50.092;15.804;2023-05-25T00:47:39;99677.38;;;8.45;100.00
70027;BME280;57506;50.092;15.804;2023-05-25T00:50:07;99679.06;;;8.38;100.00
70027;BME280;57506;50.092;15.804;2023-05-25T00:52:34;99667.13;;;8.24;100.00
70027;BME280;57506;50.092;15.804;2023-05-25T00:55:01;99674.16;;;8.17;100.00
70027;BME280;57506;50.092;15.804;2023-05-25T00:57:27;99664.25;;;8.01;100.00
70027;BME280;57506;50.092;15.804;2023-05-25T00:59:55;99666.94;;;7.93;100.00
70027;BME280;57506;50.092;15.804;2023-05-25T01:02:23;99665.69;;;7.80;100.00
70027;BME280;57506;50.092;15.804;2023-05-25T01:04:52;99671.06;;;7.80;100.00
70027;BME280;57506;50.092;15.804;2023-05-25T01:07:22;99666.53;;;7.80;100.00
70027;BME280;57506;50.092;15.804;2023-05-25T01:10:03;99673.59;;;7.73;100.00
70027;BME280;57506;50.092;15.804;2023-05-25T01:12:29;99673.06;;;7.69;100.00
70027;BME280;57506;50.092;15.804;2023-05-25T01:14:57;99678.59;;;7.60;100.00
70027;BME280;57506;50.092;15.804;2023-05-25T01:17:25;99675.19;;;7.50;100.00
70027;BME280;57506;50.092;15.804;2023-05-25T01:19:51;99671.47;;;7.43;100.00
70027;BME280;57506;50.092;15.804;2023-05-25T01:24:57;99680.00;;;7.30;100.00
70027;BME280;57506;50.092;15.804;2023-05-25T01:27:35;99670.22;;;7.21;100.00
70027;BME280;57506;50.092;15.804;2023-05-25T01:30:06;99672.72;;;7.22;100.00
70027;BME280;57506;50.092;15.804;2023-05-25T01:32:34;99672.19;;;7.11;100.00
70027;BME280;57506;50.092;15.804;2023-05-25T01:35:03;99670.44;;;7.01;100.00
70027;BME280;57506;50.092;15.804;2023-05-25T01:37:28;99659.53;;;6.95;100.00
70027;BME280;57506;50.092;15.804;2023-05-25T01:39:56;99657.53;;;6.97;100.00
70027;BME280;57506;50.092;15.804;2023-05-25T01:42:21;99664.91;;;6.95;100.00
70027;BME280;57506;50.092;15.804;2023-05-25T01:44:47;99670.59;;;7.00;100.00
70027;BME280;57506;50.092;15.804;2023-05-25T01:47:30;99664.69;;;6.88;100.00
70027;BME280;57506;50.092;15.804;2023-05-25T01:52:27;99663.91;;;6.70;100.00
70027;BME280;57506;50.092;15.804;2023-05-25T01:55:16;99656.97;;;6.59;100.00
70027;BME280;57506;50.092;15.804;2023-05-25T01:57:45;99669.84;;;6.56;100.00
70027;BME280;57506;50.092;15.804;2023-05-25T02:00:14;99657.25;;;6.48;100.00
70027;BME280;57506;50.092;15.804;2023-05-25T02:02:41;99657.53;;;6.45;100.00
70027;BME280;57506;50.092;15.804;2023-05-25T02:05:08;99663.94;;;6.52;100.00
70027;BME280;57506;50.092;15.804;2023-05-25T02:07:35;99663.31;;;6.58;100.00
70027;BME280;57506;50.092;15.804;2023-05-25T02:10:00;99665.00;;;6.59;100.00
70027;BME280;57506;50.092;15.804;2023-05-25T02:12:26;99669.97;;;6.54;100.00
70027;BME280;57506;50.092;15.804;2023-05-25T02:14:51;99663.09;;;6.52;100.00
70027;BME280;57506;50.092;15.804;2023-05-25T02:17:17;99667.69;;;6.59;100.00
70027;BME280;57506;50.092;15.804;2023-05-25T02:19:43;99676.72;;;6.58;100.00
70027;BME280;57506;50.092;15.804;2023-05-25T02:22:09;99677.81;;;6.48;100.00
70027;BME280;57506;50.092;15.804;2023-05-25T02:24:35;99680.16;;;6.51;100.00
70027;BME280;57506;50.092;15.804;2023-05-25T02:27:03;99686.84;;;6.47;100.00
70027;BME280;57506;50.092;15.804;2023-05-25T02:29:28;99691.81;;;6.42;100.00
70027;BME280;57506;50.092;15.804;2023-05-25T02:31:54;99682.50;;;6.28;100.00
70027;BME280;57506;50.092;15.804;2023-05-25T02:34:20;99681.97;;;6.24;100.00
70027;BME280;57506;50.092;15.804;2023-05-25T02:36:46;99673.78;;;6.26;100.00
70027;BME280;57506;50.092;15.804;2023-05-25T02:39:11;99686.84;;;6.47;100.00
70027;BME280;57506;50.092;15.804;2023-05-25T02:41:37;99689.78;;;6.61;100.00
70027;BME280;57506;50.092;15.804;2023-05-25T02:44:03;99675.25;;;6.64;100.00
70027;BME280;57506;50.092;15.804;2023-05-25T02:46:29;99683.03;;;6.75;100.00
70027;BME280;57506;50.092;15.804;2023-05-25T02:48:54;99685.94;;;6.82;100.00
70027;BME280;57506;50.092;15.804;2023-05-25T02:51:20;99681.22;;;6.84;100.00
70027;BME280;57506;50.092;15.804;2023-05-25T02:53:45;99684.25;;;6.81;100.00
70027;BME280;57506;50.092;15.804;2023-05-25T02:56:12;99702.31;;;6.79;100.00
70027;BME280;57506;50.092;15.804;2023-05-25T02:58:37;99699.56;;;6.71;100.00
70027;BME280;57506;50.092;15.804;2023-05-25T03:01:03;99704.72;;;6.64;100.00
70027;BME280;57506;50.092;15.804;2023-05-25T03:03:30;99706.16;;;6.58;100.00
70027;BME280;57506;50.092;15.804;2023-05-25T03:05:55;99706.41;;;6.65;100.00
70027;BME280;57506;50.092;15.804;2023-05-25T03:08:24;99698.25;;;6.75;100.00
70027;BME280;57506;50.092;15.804;2023-05-25T03:10:49;99702.38;;;6.69;100.00
70027;BME280;57506;50.092;15.804;2023-05-25T03:13:15;99712.91;;;6.62;100.00
70027;BME280;57506;50.092;15.804;2023-05-25T03:15:40;99712.06;;;6.62;100.00
70027;BME280;57506;50.092;15.804;2023-05-25T03:18:06;99702.91;;;6.47;100.00
70027;BME280;57506;50.092;15.804;2023-05-25T03:20:31;99712.78;;;6.46;100.00
70027;BME280;57506;50.092;15.804;2023-05-25T03:22:57;99705.91;;;6.70;100.00
70027;BME280;57506;50.092;15.804;2023-05-25T03:25:23;99706.56;;;6.89;100.00
70027;BME280;57506;50.092;15.804;2023-05-25T03:27:52;99711.59;;;6.92;100.00
70027;BME280;57506;50.092;15.804;2023-05-25T03:30:21;99709.91;;;6.91;100.00
70027;BME280;57506;50.092;15.804;2023-05-25T03:32:47;99709.75;;;6.93;100.00
70027;BME280;57506;50.092;15.804;2023-05-25T03:35:13;99713.81;;;6.97;100.00
70027;BME280;57506;50.092;15.804;2023-05-25T03:37:38;99715.16;;;7.01;100.00
70027;BME280;57506;50.092;15.804;2023-05-25T03:40:04;99714.38;;;7.09;100.00
70027;BME280;57506;50.092;15.804;2023-05-25T03:42:30;99717.59;;;7.12;100.00
70027;BME280;57506;50.092;15.804;2023-05-25T03:44:56;99717.94;;;7.17;100.00
70027;BME280;57506;50.092;15.804;2023-05-25T03:47:21;99713.78;;;7.23;100.00
70027;BME280;57506;50.092;15.804;2023-05-25T03:49:46;99715.69;;;7.30;100.00
70027;BME280;57506;50.092;15.804;2023-05-25T03:52:12;99734.63;;;7.37;100.00
70027;BME280;57506;50.092;15.804;2023-05-25T03:54:38;99740.50;;;7.41;100.00
70027;BME280;57506;50.092;15.804;2023-05-25T03:57:03;99737.53;;;7.44;100.00
70027;BME280;57506;50.092;15.804;2023-05-25T03:59:29;99735.69;;;7.44;100.00
70027;BME280;57506;50.092;15.804;2023-05-25T04:01:55;99736.00;;;7.49;100.00
70027;BME280;57506;50.092;15.804;2023-05-25T04:04:21;99746.31;;;7.62;100.00
70027;BME280;57506;50.092;15.804;2023-05-25T04:06:46;99743.19;;;7.75;100.00
70027;BME280;57506;50.092;15.804;2023-05-25T04:09:16;99748.56;;;7.83;100.00
70027;BME280;57506;50.092;15.804;2023-05-25T04:11:45;99746.75;;;7.91;100.00
70027;BME280;57506;50.092;15.804;2023-05-25T04:14:11;99746.25;;;7.96;100.00
70027;BME280;57506;50.092;15.804;2023-05-25T04:16:36;99743.78;;;8.11;100.00
70027;BME280;57506;50.092;15.804;2023-05-25T04:19:04;99737.09;;;8.23;100.00
70027;BME280;57506;50.092;15.804;2023-05-25T04:21:30;99749.53;;;8.32;100.00
70027;BME280;57506;50.092;15.804;2023-05-25T04:23:56;99734.09;;;8.26;100.00
70027;BME280;57506;50.092;15.804;2023-05-25T04:26:22;99738.00;;;8.39;100.00
70027;BME280;57506;50.092;15.804;2023-05-25T04:28:49;99748.72;;;8.48;100.00
70027;BME280;57506;50.092;15.804;2023-05-25T04:31:14;99752.09;;;8.58;100.00
70027;BME280;57506;50.092;15.804;2023-05-25T04:33:40;99758.31;;;8.74;100.00
70027;BME280;57506;50.092;15.804;2023-05-25T04:36:06;99760.66;;;8.86;100.00
70027;BME280;57506;50.092;15.804;2023-05-25T04:38:31;99767.34;;;8.98;100.00
70027;BME280;57506;50.092;15.804;2023-05-25T04:40:58;99762.47;;;9.09;100.00
70027;BME280;57506;50.092;15.804;2023-05-25T04:43:23;99768.00;;;9.16;100.00
70027;BME280;57506;50.092;15.804;2023-05-25T04:45:53;99765.50;;;9.23;100.00
70027;BME280;57506;50.092;15.804;2023-05-25T04:48:19;99764.97;;;9.27;100.00
70027;BME280;57506;50.092;15.804;2023-05-25T04:50:45;99767.78;;;9.42;100.00
70027;BME280;57506;50.092;15.804;2023-05-25T04:53:10;99779.69;;;9.56;100.00
70027;BME280;57506;50.092;15.804;2023-05-25T04:55:36;99778.66;;;9.65;100.00
70027;BME280;57506;50.092;15.804;2023-05-25T04:58:02;99780.47;;;9.72;100.00
70027;BME280;57506;50.092;15.804;2023-05-25T05:00:30;99781.63;;;9.78;100.00
70027;BME280;57506;50.092;15.804;2023-05-25T05:02:56;99778.25;;;9.76;100.00
70027;BME280;57506;50.092;15.804;2023-05-25T05:05:23;99775.91;;;9.81;100.00
70027;BME280;57506;50.092;15.804;2023-05-25T05:07:48;99777.91;;;9.87;100.00
70027;BME280;57506;50.092;15.804;2023-05-25T05:10:14;99777.56;;;9.90;100.00
70027;BME280;57506;50.092;15.804;2023-05-25T05:12:39;99765.41;;;9.94;100.00
70027;BME280;57506;50.092;15.804;2023-05-25T05:15:05;99772.56;;;10.10;100.00
70027;BME280;57506;50.092;15.804;2023-05-25T05:17:31;99773.69;;;10.24;100.00
70027;BME280;57506;50.092;15.804;2023-05-25T05:19:57;99776.34;;;10.32;100.00
70027;BME280;57506;50.092;15.804;2023-05-25T05:22:22;99772.88;;;10.46;100.00
70027;BME280;57506;50.092;15.804;2023-05-25T05:24:48;99784.72;;;10.60;100.00
70027;BME280;57506;50.092;15.804;2023-05-25T05:27:14;99774.09;;;10.66;100.00
70027;BME280;57506;50.092;15.804;2023-05-25T05:29:40;99785.94;;;10.80;100.00
70027;BME280;57506;50.092;15.804;2023-05-25T05:32:07;99787.00;;;10.94;100.00
70027;BME280;57506;50.092;15.804;2023-05-25T05:34:33;99788.88;;;11.08;100.00
70027;BME280;57506;50.092;15.804;2023-05-25T05:36:59;99796.44;;;11.12;100.00
70027;BME280;57506;50.092;15.804;2023-05-25T05:39:25;99788.72;;;11.24;100.00
70027;BME280;57506;50.092;15.804;2023-05-25T05:41:51;99797.84;;;11.23;100.00
70027;BME280;57506;50.092;15.804;2023-05-25T05:44:17;99807.91;;;11.29;100.00
70027;BME280;57506;50.092;15.804;2023-05-25T05:46:42;99801.41;;;11.38;100.00
70027;BME280;57506;50.092;15.804;2023-05-25T05:49:08;99799.47;;;11.47;100.00
70027;BME280;57506;50.092;15.804;2023-05-25T05:51:33;99797.81;;;11.61;100.00
70027;BME280;57506;50.092;15.804;2023-05-25T05:53:59;99805.38;;;11.80;100.00
70027;BME280;57506;50.092;15.804;2023-05-25T05:56:24;99810.03;;;11.86;100.00
70027;BME280;57506;50.092;15.804;2023-05-25T05:58:51;99803.69;;;12.08;100.00
70027;BME280;57506;50.092;15.804;2023-05-25T06:01:18;99806.91;;;12.18;100.00
70027;BME280;57506;50.092;15.804;2023-05-25T06:03:44;99811.34;;;12.41;100.00
70027;BME280;57506;50.092;15.804;2023-05-25T06:06:10;99799.41;;;12.50;100.00
70027;BME280;57506;50.092;15.804;2023-05-25T06:08:35;99806.47;;;12.72;100.00
70027;BME280;57506;50.092;15.804;2023-05-25T06:11:01;99811.63;;;12.88;100.00
70027;BME280;57506;50.092;15.804;2023-05-25T06:13:26;99815.56;;;12.86;100.00
70027;BME280;57506;50.092;15.804;2023-05-25T06:15:52;99807.41;;;12.79;100.00
70027;BME280;57506;50.092;15.804;2023-05-25T06:18:17;99803.63;;;13.02;100.00
70027;BME280;57506;50.092;15.804;2023-05-25T06:20:43;99805.50;;;13.01;98.73
70027;BME280;57506;50.092;15.804;2023-05-25T06:23:09;99822.34;;;13.18;99.56
70027;BME280;57506;50.092;15.804;2023-05-25T06:25:36;99819.50;;;13.05;97.09
70027;BME280;57506;50.092;15.804;2023-05-25T06:28:02;99822.25;;;13.11;97.60
70027;BME280;57506;50.092;15.804;2023-05-25T06:30:27;99826.06;;;13.38;96.34
70027;BME280;57506;50.092;15.804;2023-05-25T06:32:53;99832.41;;;13.52;95.66
70027;BME280;57506;50.092;15.804;2023-05-25T06:35:18;99823.13;;;13.68;94.41
70027;BME280;57506;50.092;15.804;2023-05-25T06:37:47;99833.31;;;13.65;94.56
70027;BME280;57506;50.092;15.804;2023-05-25T06:40:15;99835.06;;;13.73;93.13
70027;BME280;57506;50.092;15.804;2023-05-25T06:42:41;99823.00;;;13.76;91.52
70027;BME280;57506;50.092;15.804;2023-05-25T06:45:07;99829.22;;;14.11;92.72
70027;BME280;57506;50.092;15.804;2023-05-25T06:47:33;99830.66;;;14.48;92.49
70027;BME280;57506;50.092;15.804;2023-05-25T06:49:59;99827.38;;;14.59;85.95
70027;BME280;57506;50.092;15.804;2023-05-25T06:52:25;99823.47;;;14.33;84.44
70027;BME280;57506;50.092;15.804;2023-05-25T06:54:54;99813.38;;;14.55;84.78
70027;BME280;57506;50.092;15.804;2023-05-25T06:57:20;99817.75;;;14.63;83.86
70027;BME280;57506;50.092;15.804;2023-05-25T06:59:46;99818.00;;;14.75;83.74
70027;BME280;57506;50.092;15.804;2023-05-25T07:02:11;99824.91;;;14.77;81.82
70027;BME280;57506;50.092;15.804;2023-05-25T07:04:37;99824.47;;;14.80;79.66
70027;BME280;57506;50.092;15.804;2023-05-25T07:07:02;99823.88;;;15.11;80.33
70027;BME280;57506;50.092;15.804;2023-05-25T07:09:28;99817.84;;;15.29;79.06
70027;BME280;57506;50.092;15.804;2023-05-25T07:11:54;99830.41;;;15.56;78.08
70027;BME280;57506;50.092;15.804;2023-05-25T07:14:19;99832.50;;;15.41;76.82
70027;BME280;57506;50.092;15.804;2023-05-25T07:16:45;99819.09;;;15.59;77.64
70027;BME280;57506;50.092;15.804;2023-05-25T07:19:11;99828.53;;;15.57;75.54
70027;BME280;57506;50.092;15.804;2023-05-25T07:21:36;99824.97;;;15.56;76.34
70027;BME280;57506;50.092;15.804;2023-05-25T07:24:02;99828.94;;;15.60;74.33
70027;BME280;57506;50.092;15.804;2023-05-25T07:26:29;99836.25;;;15.73;74.08
70027;BME280;57506;50.092;15.804;2023-05-25T07:28:56;99823.25;;;15.82;74.18
70027;BME280;57506;50.092;15.804;2023-05-25T07:31:22;99829.34;;;15.70;73.85
70027;BME280;57506;50.092;15.804;2023-05-25T07:33:48;99821.38;;;15.82;73.30
70027;BME280;57506;50.092;15.804;2023-05-25T07:36:13;99824.78;;;16.35;72.33
70027;BME280;57506;50.092;15.804;2023-05-25T07:38:39;99823.56;;;16.18;72.08
70027;BME280;57506;50.092;15.804;2023-05-25T07:41:04;99826.25;;;16.31;72.40
70027;BME280;57506;50.092;15.804;2023-05-25T07:43:30;99819.03;;;16.05;72.88
70027;BME280;57506;50.092;15.804;2023-05-25T07:45:56;99818.44;;;15.84;73.13
70027;BME280;57506;50.092;15.804;2023-05-25T07:48:21;99826.41;;;15.65;73.68
70027;BME280;57506;50.092;15.804;2023-05-25T07:50:47;99814.47;;;15.80;74.69
70027;BME280;57506;50.092;15.804;2023-05-25T07:53:12;99816.28;;;16.12;73.77
70027;BME280;57506;50.092;15.804;2023-05-25T07:55:38;99811.81;;;16.24;73.82
70027;BME280;57506;50.092;15.804;2023-05-25T07:58:03;99816.81;;;16.34;72.48
70027;BME280;57506;50.092;15.804;2023-05-25T08:00:31;99817.22;;;16.37;71.54
70027;BME280;57506;50.092;15.804;2023-05-25T08:02:57;99816.00;;;16.33;70.86
70027;BME280;57506;50.092;15.804;2023-05-25T08:05:22;99810.88;;;16.50;69.96
70027;BME280;57506;50.092;15.804;2023-05-25T08:07:48;99800.03;;;16.43;69.13
70027;BME280;57506;50.092;15.804;2023-05-25T08:10:13;99810.06;;;16.43;70.97
70027;BME280;57506;50.092;15.804;2023-05-25T08:12:41;99817.50;;;16.61;71.21
70027;BME280;57506;50.092;15.804;2023-05-25T08:15:06;99820.88;;;16.69;71.09
70027;BME280;57506;50.092;15.804;2023-05-25T08:17:32;99810.84;;;16.57;68.75
70027;BME280;57506;50.092;15.804;2023-05-25T08:19:57;99815.91;;;16.47;70.37
70027;BME280;57506;50.092;15.804;2023-05-25T08:22:23;99821.00;;;16.36;72.10
70027;BME280;57506;50.092;15.804;2023-05-25T08:24:48;99817.59;;;16.48;73.28
70027;BME280;57506;50.092;15.804;2023-05-25T08:27:14;99816.47;;;16.68;71.21
70027;BME280;57506;50.092;15.804;2023-05-25T08:29:40;99817.25;;;16.75;69.09
70027;BME280;57506;50.092;15.804;2023-05-25T08:32:06;99813.59;;;16.50;68.93
70027;BME280;57506;50.092;15.804;2023-05-25T08:34:32;99820.25;;;16.67;68.34
70027;BME280;57506;50.092;15.804;2023-05-25T08:36:58;99806.22;;;16.64;69.24
70027;BME280;57506;50.092;15.804;2023-05-25T08:39:24;99803.69;;;16.69;67.22
70027;BME280;57506;50.092;15.804;2023-05-25T08:41:49;99809.50;;;16.79;69.81
70027;BME280;57506;50.092;15.804;2023-05-25T08:44:18;99814.19;;;16.65;68.71
70027;BME280;57506;50.092;15.804;2023-05-25T08:46:46;99824.84;;;16.67;68.59
70027;BME280;57506;50.092;15.804;2023-05-25T08:49:14;99821.69;;;16.70;69.95
70027;BME280;57506;50.092;15.804;2023-05-25T08:51:50;99809.84;;;16.89;68.84
70027;BME280;57506;50.092;15.804;2023-05-25T08:54:24;99812.00;;;16.81;67.81
70027;BME280;57506;50.092;15.804;2023-05-25T08:57:09;99813.00;;;16.86;69.76
70027;BME280;57506;50.092;15.804;2023-05-25T08:59:46;99807.66;;;17.04;67.36
70027;BME280;57506;50.092;15.804;2023-05-25T09:04:41;99815.00;;;17.29;68.33
70027;BME280;57506;50.092;15.804;2023-05-25T09:07:07;99821.00;;;17.12;65.88
70027;BME280;57506;50.092;15.804;2023-05-25T09:09:33;99817.59;;;17.42;66.95
70027;BME280;57506;50.092;15.804;2023-05-25T09:12:02;99814.75;;;17.55;65.02
70027;BME280;57506;50.092;15.804;2023-05-25T09:14:29;99818.88;;;17.39;61.99
70027;BME280;57506;50.092;15.804;2023-05-25T09:16:55;99813.94;;;17.30;65.47
70027;BME280;57506;50.092;15.804;2023-05-25T09:19:22;99807.09;;;17.45;65.40
70027;BME280;57506;50.092;15.804;2023-05-25T09:21:47;99824.91;;;17.48;65.17
70027;BME280;57506;50.092;15.804;2023-05-25T09:24:14;99806.75;;;17.60;64.16
70027;BME280;57506;50.092;15.804;2023-05-25T09:26:39;99812.66;;;17.82;66.26
70027;BME280;57506;50.092;15.804;2023-05-25T09:29:05;99812.19;;;17.67;63.82
70027;BME280;57506;50.092;15.804;2023-05-25T09:31:31;99806.13;;;17.58;67.99
70027;BME280;57506;50.092;15.804;2023-05-25T09:33:57;99808.91;;;17.76;66.26
70027;BME280;57506;50.092;15.804;2023-05-25T09:36:25;99790.75;;;18.07;64.23
70027;BME280;57506;50.092;15.804;2023-05-25T09:38:54;99795.47;;;18.18;63.13
70027;BME280;57506;50.092;15.804;2023-05-25T09:41:20;99813.03;;;18.04;63.03
70027;BME280;57506;50.092;15.804;2023-05-25T09:43:46;99794.69;;;17.93;65.99
70027;BME280;57506;50.092;15.804;2023-05-25T09:46:12;99802.72;;;17.88;65.04
70027;BME280;57506;50.092;15.804;2023-05-25T09:48:38;99791.81;;;17.88;69.15
70027;BME280;57506;50.092;15.804;2023-05-25T09:51:06;99792.50;;;18.01;65.47
70027;BME280;57506;50.092;15.804;2023-05-25T09:53:32;99797.44;;;18.11;63.18
70027;BME280;57506;50.092;15.804;2023-05-25T09:55:59;99798.81;;;18.02;65.28
70027;BME280;57506;50.092;15.804;2023-05-25T09:58:25;99795.91;;;18.15;63.09
70027;BME280;57506;50.092;15.804;2023-05-25T10:00:52;99791.28;;;17.97;64.21
70027;BME280;57506;50.092;15.804;2023-05-25T10:03:19;99798.31;;;18.05;65.30
70027;BME280;57506;50.092;15.804;2023-05-25T10:05:47;99801.22;;;18.10;66.16
70027;BME280;57506;50.092;15.804;2023-05-25T10:08:12;99793.34;;;18.02;66.14
70027;BME280;57506;50.092;15.804;2023-05-25T10:10:39;99805.44;;;18.06;64.89
70027;BME280;57506;50.092;15.804;2023-05-25T10:13:07;99811.00;;;17.99;64.65
70027;BME280;57506;50.092;15.804;2023-05-25T10:15:39;99799.53;;;18.27;64.24
70027;BME280;57506;50.092;15.804;2023-05-25T10:18:08;99802.00;;;18.47;62.85
70027;BME280;57506;50.092;15.804;2023-05-25T10:20:34;99795.22;;;18.68;63.15
70027;BME280;57506;50.092;15.804;2023-05-25T10:23:08;99797.25;;;18.61;62.50
70027;BME280;57506;50.092;15.804;2023-05-25T10:25:45;99797.22;;;18.91;66.98
70027;BME280;57506;50.092;15.804;2023-05-25T10:28:32;99796.91;;;18.69;65.19
70027;BME280;57506;50.092;15.804;2023-05-25T10:31:00;99792.19;;;18.58;64.58
70027;BME280;57506;50.092;15.804;2023-05-25T10:33:26;99786.75;;;18.58;64.02
70027;BME280;57506;50.092;15.804;2023-05-25T10:35:53;99787.97;;;18.62;63.74
70027;BME280;57506;50.092;15.804;2023-05-25T10:38:20;99776.84;;;18.63;64.57
70027;BME280;57506;50.092;15.804;2023-05-25T10:40:46;99780.06;;;18.72;66.94
70027;BME280;57506;50.092;15.804;2023-05-25T10:43:16;99783.31;;;18.80;67.17
70027;BME280;57506;50.092;15.804;2023-05-25T10:45:42;99775.00;;;18.87;65.62
70027;BME280;57506;50.092;15.804;2023-05-25T10:48:08;99785.47;;;18.90;61.19
70027;BME280;57506;50.092;15.804;2023-05-25T10:50:35;99780.69;;;18.85;59.98
70027;BME280;57506;50.092;15.804;2023-05-25T10:55:41;99774.63;;;18.83;60.84
70027;BME280;57506;50.092;15.804;2023-05-25T10:58:14;99787.78;;;18.75;62.20
70027;BME280;57506;50.092;15.804;2023-05-25T11:00:41;99777.66;;;19.05;61.05
70027;BME280;57506;50.092;15.804;2023-05-25T11:03:07;99785.53;;;19.25;61.04
70027;BME280;57506;50.092;15.804;2023-05-25T11:05:39;99781.59;;;19.09;60.09
70027;BME280;57506;50.092;15.804;2023-05-25T11:08:08;99780.75;;;18.97;60.11
70027;BME280;57506;50.092;15.804;2023-05-25T11:10:49;99776.06;;;18.86;59.21
70027;BME280;57506;50.092;15.804;2023-05-25T11:18:40;99766.50;;;19.18;64.82
70027;BME280;57506;50.092;15.804;2023-05-25T11:21:14;99770.94;;;19.54;61.46
70027;BME280;57506;50.092;15.804;2023-05-25T11:26:27;99770.34;;;19.52;64.01
70027;BME280;57506;50.092;15.804;2023-05-25T11:28:53;99765.22;;;19.44;61.84
70027;BME280;57506;50.092;15.804;2023-05-25T11:31:29;99761.16;;;19.35;62.34
70027;BME280;57506;50.092;15.804;2023-05-25T11:33:57;99755.97;;;19.45;62.82
70027;BME280;57506;50.092;15.804;2023-05-25T11:36:26;99752.66;;;19.55;63.07
70027;BME280;57506;50.092;15.804;2023-05-25T11:38:55;99748.59;;;19.69;62.59
70027;BME280;57506;50.092;15.804;2023-05-25T11:41:21;99751.22;;;19.64;60.82
70027;BME280;57506;50.092;15.804;2023-05-25T11:43:49;99756.94;;;19.63;60.05
70027;BME280;57506;50.092;15.804;2023-05-25T11:46:16;99755.03;;;19.51;60.88
70027;BME280;57506;50.092;15.804;2023-05-25T11:48:50;99750.63;;;19.62;60.45
70027;BME280;57506;50.092;15.804;2023-05-25T11:51:20;99741.31;;;19.86;60.05
70027;BME280;57506;50.092;15.804;2023-05-25T11:53:46;99740.78;;;20.13;59.26
70027;BME280;57506;50.092;15.804;2023-05-25T11:56:16;99741.34;;;20.15;53.20
70027;BME280;57506;50.092;15.804;2023-05-25T11:58:42;99729.41;;;20.33;51.37
70027;BME280;57506;50.092;15.804;2023-05-25T12:01:26;99735.59;;;20.40;51.93
70027;BME280;57506;50.092;15.804;2023-05-25T12:03:55;99737.66;;;20.21;52.33
70027;BME280;57506;50.092;15.804;2023-05-25T12:06:28;99743.25;;;20.26;54.79
70027;BME280;57506;50.092;15.804;2023-05-25T12:08:54;99739.59;;;20.09;50.82
70027;BME280;57506;50.092;15.804;2023-05-25T12:11:46;99734.09;;;20.20;50.79
70027;BME280;57506;50.092;15.804;2023-05-25T12:14:12;99725.03;;;20.20;50.42
70027;BME280;57506;50.092;15.804;2023-05-25T12:16:38;99718.53;;;20.49;52.77
70027;BME280;57506;50.092;15.804;2023-05-25T12:19:06;99722.34;;;20.48;53.30
70027;BME280;57506;50.092;15.804;2023-05-25T12:21:32;99708.25;;;20.28;54.37
70027;BME280;57506;50.092;15.804;2023-05-25T12:23:58;99706.47;;;20.22;54.03
70027;BME280;57506;50.092;15.804;2023-05-25T12:26:24;99708.56;;;20.32;56.09
70027;BME280;57506;50.092;15.804;2023-05-25T12:29:01;99706.41;;;20.45;57.22
70027;BME280;57506;50.092;15.804;2023-05-25T12:31:31;99708.53;;;20.72;53.30
70027;BME280;57506;50.092;15.804;2023-05-25T12:36:50;99711.06;;;20.45;50.10
70027;BME280;57506;50.092;15.804;2023-05-25T12:41:52;99703.44;;;20.64;50.67
70027;BME280;57506;50.092;15.804;2023-05-25T12:44:33;99690.69;;;20.86;51.98
70027;BME280;57506;50.092;15.804;2023-05-25T12:47:18;99695.94;;;21.21;53.92
70027;BME280;57506;50.092;15.804;2023-05-25T12:50:14;99685.69;;;21.16;54.00
70027;BME280;57506;50.092;15.804;2023-05-25T12:52:41;99684.53;;;21.12;52.36
70027;BME280;57506;50.092;15.804;2023-05-25T12:55:27;99676.97;;;21.03;54.10
70027;BME280;57506;50.092;15.804;2023-05-25T12:57:57;99682.56;;;21.08;54.07
70027;BME280;57506;50.092;15.804;2023-05-25T13:00:24;99685.03;;;21.09;51.22
70027;BME280;57506;50.092;15.804;2023-05-25T13:02:51;99691.16;;;21.16;52.51
70027;BME280;57506;50.092;15.804;2023-05-25T13:05:28;99680.66;;;21.08;51.80
70027;BME280;57506;50.092;15.804;2023-05-25T13:07:55;99683.06;;;21.21;54.57
70027;BME280;57506;50.092;15.804;2023-05-25T13:10:21;99686.72;;;21.10;53.50
70027;BME280;57506;50.092;15.804;2023-05-25T13:12:48;99672.34;;;21.03;54.02
70027;BME280;57506;50.092;15.804;2023-05-25T13:15:16;99680.13;;;21.11;52.83